createdAt,value
2022-10-22T00:01:58.851Z,29.83
2022-10-22T00:04:48.295Z,29.70
2022-10-22T00:07:36.839Z,28.07
2022-10-22T00:10:26.063Z,27.30
2022-10-22T00:13:16.300Z,29.70
2022-10-22T00:16:04.723Z,29.83
2022-10-22T00:18:54.030Z,30.17
2022-10-22T00:21:42.312Z,28.73
2022-10-22T00:24:30.771Z,28.57
2022-10-22T00:27:19.478Z,30.07
2022-10-22T00:30:12.531Z,28.50
2022-10-22T00:33:00.512Z,30.20
2022-10-22T00:35:49.362Z,30.60
2022-10-22T00:38:37.822Z,29.40
2022-10-22T00:41:26.784Z,29.63
2022-10-22T00:44:46.604Z,28.00
2022-10-22T00:47:37.865Z,27.93
2022-10-22T00:50:32.206Z,27.83
2022-10-22T00:53:25.746Z,28.30
2022-10-22T00:56:14.250Z,29.37
2022-10-22T00:59:04.224Z,28.33
2022-10-22T01:01:53.411Z,27.50
2022-10-22T01:04:42.210Z,27.53
2022-10-22T01:07:31.142Z,27.97
2022-10-22T01:10:31.272Z,28.97
2022-10-22T01:13:29.338Z,27.87
2022-10-22T01:16:22.679Z,28.57
2022-10-22T01:19:38.936Z,30.63
2022-10-22T01:22:35.587Z,28.07
2022-10-22T01:25:33.619Z,28.83
2022-10-22T01:28:29.955Z,29.33
2022-10-22T01:31:24.023Z,28.10
2022-10-22T01:34:18.975Z,27.53
2022-10-22T01:37:13.404Z,28.00
2022-10-22T01:40:07.561Z,28.27
2022-10-22T01:43:02.794Z,27.77
2022-10-22T01:45:57.928Z,27.03
2022-10-22T01:48:59.418Z,27.70
2022-10-22T01:52:03.836Z,27.43
2022-10-22T01:55:13.233Z,28.87
2022-10-22T01:58:20.828Z,28.40
2022-10-22T02:01:23.923Z,27.47
2022-10-22T02:07:14.534Z,27.13
2022-10-22T02:10:10.426Z,27.43
2022-10-22T02:13:04.529Z,26.50
2022-10-22T02:15:58.297Z,26.97
2022-10-22T02:18:52.666Z,27.87
2022-10-22T02:21:45.947Z,25.73
2022-10-22T02:24:38.581Z,24.87
2022-10-22T02:27:37.797Z,22.97
2022-10-22T02:30:30.107Z,23.80
2022-10-22T02:33:27.731Z,23.80
2022-10-22T02:36:20.433Z,23.23
2022-10-22T02:42:04.461Z,22.20
2022-10-22T02:44:56.849Z,21.23
2022-10-22T02:47:49.010Z,22.65
2022-10-22T02:50:41.010Z,20.60
2022-10-22T02:53:33.340Z,22.73
2022-10-22T02:56:25.343Z,22.43
2022-10-22T02:59:17.520Z,21.02
2022-10-22T03:02:09.735Z,22.55
2022-10-22T03:05:01.391Z,21.65
2022-10-22T03:07:53.402Z,22.43
2022-10-22T03:10:45.467Z,21.82
2022-10-22T03:13:36.943Z,21.07
2022-10-22T03:16:29.230Z,23.27
2022-10-22T03:19:21.733Z,22.90
2022-10-22T03:22:18.271Z,22.47
2022-10-22T03:25:15.805Z,23.73
2022-10-22T03:28:11.011Z,23.00
2022-10-22T03:31:02.422Z,23.10
2022-10-22T03:33:54.379Z,23.43
2022-10-22T03:36:46.629Z,23.63
2022-10-22T03:39:40.322Z,24.70
2022-10-22T03:42:32.674Z,25.10
2022-10-22T03:45:24.587Z,25.90
2022-10-22T03:48:17.407Z,25.72
2022-10-22T03:51:10.596Z,26.97
2022-10-22T03:54:03.310Z,27.43
2022-10-22T03:56:55.924Z,27.37
2022-10-22T03:59:49.188Z,27.77
2022-10-22T04:02:41.115Z,26.97
2022-10-22T04:05:33.580Z,26.90
2022-10-22T04:11:16.386Z,27.27
2022-10-22T04:14:09.062Z,28.00
2022-10-22T04:17:01.880Z,25.97
2022-10-22T04:22:43.646Z,26.07
2022-10-22T04:25:36.084Z,25.73
2022-10-22T04:28:27.891Z,28.12
2022-10-22T04:31:21.602Z,27.05
2022-10-22T04:34:13.638Z,26.07
2022-10-22T04:37:05.448Z,26.83
2022-10-22T04:39:58.279Z,26.48
2022-10-22T04:42:51.600Z,27.20
2022-10-22T04:45:43.570Z,27.03
2022-10-22T04:48:35.798Z,27.83
2022-10-22T04:51:29.544Z,24.87
2022-10-22T04:54:21.701Z,25.17
2022-10-22T04:57:14.747Z,26.35
2022-10-22T05:00:10.228Z,27.17
2022-10-22T05:03:02.568Z,26.33
2022-10-22T05:05:54.538Z,28.02
2022-10-22T05:08:46.886Z,27.65
2022-10-22T05:11:45.598Z,27.23
2022-10-22T05:14:41.402Z,27.00
2022-10-22T05:17:39.120Z,30.77
2022-10-22T05:20:31.346Z,28.57
2022-10-22T05:23:23.346Z,29.55
2022-10-22T05:26:17.690Z,27.58
2022-10-22T05:29:09.752Z,28.17
2022-10-22T05:32:01.778Z,27.90
2022-10-22T05:34:53.692Z,26.80
2022-10-22T05:37:46.160Z,27.22
2022-10-22T05:40:38.780Z,26.30
2022-10-22T05:43:31.302Z,26.00
2022-10-22T05:46:25.399Z,25.55
2022-10-22T05:49:18.207Z,26.83
2022-10-22T05:52:10.523Z,28.10
2022-10-22T05:57:54.916Z,26.10
2022-10-22T06:00:46.755Z,26.87
2022-10-22T06:03:38.770Z,27.00
2022-10-22T06:06:34.261Z,26.47
2022-10-22T06:09:29.363Z,29.87
2022-10-22T06:12:21.980Z,30.17
2022-10-22T06:15:16.404Z,30.52
2022-10-22T06:18:08.834Z,30.07
2022-10-22T06:21:07.479Z,29.67
2022-10-22T06:24:01.940Z,32.80
2022-10-22T06:26:55.875Z,32.87
2022-10-22T06:29:49.125Z,32.33
2022-10-22T06:32:41.767Z,33.20
2022-10-22T06:35:34.762Z,35.87
2022-10-22T06:41:18.553Z,34.73
2022-10-22T06:44:14.761Z,29.33
2022-10-22T06:47:07.293Z,28.50
2022-10-22T06:49:59.554Z,27.57
2022-10-22T06:52:51.307Z,27.60
2022-10-22T06:55:43.748Z,26.63
2022-10-22T06:58:36.599Z,29.65
2022-10-22T07:01:31.025Z,28.97
2022-10-22T07:04:22.913Z,27.80
2022-10-22T07:07:15.767Z,26.45
2022-10-22T07:10:09.741Z,27.03
2022-10-22T07:13:02.287Z,28.67
2022-10-22T07:15:57.607Z,28.13
2022-10-22T07:18:49.901Z,27.53
2022-10-22T07:21:42.314Z,26.75
2022-10-22T07:24:34.920Z,27.90
2022-10-22T07:27:27.636Z,30.83
2022-10-22T07:33:10.948Z,25.53
2022-10-22T07:36:05.876Z,26.97
2022-10-22T07:39:02.197Z,28.60
2022-10-22T07:41:56.326Z,29.10
2022-10-22T07:44:47.749Z,27.98
2022-10-22T07:47:39.979Z,28.03
2022-10-22T07:50:32.458Z,25.77
2022-10-22T07:53:24.654Z,28.80
2022-10-22T07:56:17.586Z,27.33
2022-10-22T08:01:59.718Z,24.10
2022-10-22T08:04:51.955Z,23.92
2022-10-22T08:07:44.403Z,22.30
2022-10-22T08:10:36.640Z,22.90
2022-10-22T08:13:30.830Z,23.55
2022-10-22T08:16:22.954Z,22.53
2022-10-22T08:19:19.042Z,20.30
2022-10-22T08:22:11.958Z,21.10
2022-10-22T08:25:04.160Z,20.00
2022-10-22T08:27:56.407Z,18.80
2022-10-22T08:33:41.880Z,20.20
2022-10-22T08:36:34.137Z,19.03
2022-10-22T08:39:26.171Z,19.07
2022-10-22T08:42:46.669Z,16.87
2022-10-22T08:45:47.507Z,17.40
2022-10-22T08:48:47.860Z,17.13
2022-10-22T08:51:40.818Z,15.03
2022-10-22T08:54:42.035Z,14.70
2022-10-22T08:57:49.965Z,14.73
2022-10-22T09:00:49.054Z,15.63
2022-10-22T09:03:52.742Z,14.47
2022-10-22T09:06:47.527Z,15.90
2022-10-22T09:09:50.936Z,16.57
2022-10-22T09:12:42.956Z,19.57
2022-10-22T09:15:34.776Z,17.02
2022-10-22T09:18:41.158Z,17.73
2022-10-22T09:21:41.617Z,16.47
2022-10-22T09:24:40.090Z,15.27
2022-10-22T09:27:33.162Z,15.67
2022-10-22T09:30:26.871Z,14.17
2022-10-22T09:33:23.923Z,14.03
2022-10-22T09:36:20.893Z,13.80
2022-10-22T09:39:28.527Z,14.10
2022-10-22T09:42:22.694Z,13.07
2022-10-22T09:45:21.306Z,13.90
2022-10-22T09:48:26.619Z,12.67
2022-10-22T09:51:22.078Z,12.00
2022-10-22T09:54:22.183Z,11.40
2022-10-22T09:57:22.797Z,11.90
2022-10-22T10:00:25.012Z,10.80
2022-10-22T10:03:22.727Z,12.30
2022-10-22T10:06:18.723Z,10.33
2022-10-22T10:09:16.850Z,10.60
2022-10-22T10:12:22.922Z,11.20
2022-10-22T10:15:26.572Z,9.70
2022-10-22T10:18:29.156Z,10.10
2022-10-22T10:21:30.937Z,10.50
2022-10-22T10:24:30.321Z,10.60
2022-10-22T10:27:32.486Z,10.63
2022-10-22T10:30:25.868Z,11.68
2022-10-22T10:33:29.463Z,10.93
2022-10-22T10:36:29.064Z,11.13
2022-10-22T10:39:25.681Z,10.47
2022-10-22T10:42:24.898Z,11.47
2022-10-22T10:45:27.039Z,10.73
2022-10-22T10:48:51.567Z,10.85
2022-10-22T10:51:54.317Z,10.50
2022-10-22T10:57:47.522Z,10.43
2022-10-22T11:00:48.360Z,8.67
2022-10-22T11:03:54.464Z,9.73
2022-10-22T11:06:48.462Z,10.23
2022-10-22T11:09:45.269Z,9.83
2022-10-22T11:12:42.206Z,10.87
2022-10-22T11:15:37.103Z,12.30
2022-10-22T11:18:37.210Z,10.03
2022-10-22T11:21:34.472Z,10.67
2022-10-22T11:24:36.226Z,10.27
2022-10-22T11:27:33.145Z,9.43
2022-10-22T11:30:27.366Z,9.23
2022-10-22T11:33:23.930Z,9.55
2022-10-22T11:36:17.106Z,10.40
2022-10-22T11:39:28.745Z,9.73
2022-10-22T11:42:24.769Z,9.43
2022-10-22T11:48:21.029Z,9.30
2022-10-22T11:51:33.655Z,8.83
2022-10-22T11:54:46.106Z,9.23
2022-10-22T11:57:43.893Z,8.87
2022-10-22T12:00:48.537Z,8.60
2022-10-22T12:03:45.606Z,8.20
2022-10-22T12:06:57.727Z,7.97
2022-10-22T12:12:45.746Z,11.30
2022-10-22T12:15:47.719Z,9.33
2022-10-22T12:18:45.920Z,11.30
2022-10-22T12:21:39.348Z,8.63
2022-10-22T12:24:36.777Z,10.53
2022-10-22T12:27:34.912Z,9.70
2022-10-22T12:30:29.233Z,10.80
2022-10-22T12:33:26.615Z,10.60
2022-10-22T12:36:22.442Z,10.90
2022-10-22T12:39:17.296Z,9.23
2022-10-22T12:42:14.325Z,10.00
2022-10-22T12:45:08.126Z,11.47
2022-10-22T12:48:03.504Z,14.97
2022-10-22T12:50:57.379Z,15.93
2022-10-22T12:53:51.124Z,16.87
2022-10-22T12:56:43.235Z,13.97
2022-10-22T12:59:38.704Z,10.27
2022-10-22T13:02:31.775Z,12.77
2022-10-22T13:05:34.450Z,16.37
2022-10-22T13:08:30.272Z,15.37
2022-10-22T13:11:23.860Z,19.57
2022-10-22T13:14:23.533Z,12.20
2022-10-22T13:17:17.982Z,13.70
2022-10-22T13:20:21.121Z,13.25
2022-10-22T13:23:24.264Z,14.00
2022-10-22T13:26:18.523Z,13.17
2022-10-22T13:29:19.460Z,11.80
2022-10-22T13:32:28.744Z,9.33
2022-10-22T13:35:23.250Z,10.60
2022-10-22T13:38:20.607Z,9.47
2022-10-22T13:41:24.929Z,8.67
2022-10-22T13:44:16.886Z,9.23
2022-10-22T13:47:16.350Z,8.85
2022-10-22T13:50:14.794Z,12.03
2022-10-22T13:53:08.346Z,16.73
2022-10-22T13:56:00.739Z,18.63
2022-10-22T13:58:54.139Z,14.97
2022-10-22T14:01:46.863Z,13.83
2022-10-22T14:04:41.557Z,13.57
2022-10-22T14:07:34.812Z,13.67
2022-10-22T14:10:28.277Z,13.90
2022-10-22T14:13:21.596Z,14.07
2022-10-22T14:16:19.551Z,15.63
2022-10-22T14:19:16.593Z,14.50
2022-10-22T14:22:09.755Z,13.17
2022-10-22T14:25:02.411Z,12.20
2022-10-22T14:27:54.269Z,13.18
2022-10-22T14:30:46.621Z,11.93
2022-10-22T14:33:38.454Z,12.40
2022-10-22T14:36:31.099Z,12.90
2022-10-22T14:39:23.175Z,13.90
2022-10-22T14:45:06.204Z,13.80
2022-10-22T14:50:49.140Z,16.57
2022-10-22T14:53:41.008Z,15.70
2022-10-22T14:56:33.908Z,15.00
2022-10-22T14:59:26.531Z,13.87
2022-10-22T15:02:18.774Z,14.07
2022-10-22T15:05:12.909Z,13.67
2022-10-22T15:08:05.993Z,14.97
2022-10-22T15:11:06.452Z,14.63
2022-10-22T15:13:58.271Z,14.87
2022-10-22T15:16:50.062Z,13.80
2022-10-22T15:19:41.612Z,15.23
2022-10-22T15:22:35.518Z,16.20
2022-10-22T15:25:27.724Z,15.33
2022-10-22T15:28:20.205Z,16.82
2022-10-22T15:31:13.871Z,15.77
2022-10-22T15:34:05.840Z,16.10
2022-10-22T15:37:00.295Z,16.17
2022-10-22T15:39:52.595Z,20.10
2022-10-22T15:42:46.888Z,20.77
2022-10-22T15:45:39.344Z,20.87
2022-10-22T15:48:31.825Z,21.97
2022-10-22T15:54:17.979Z,21.30
2022-10-22T15:57:10.935Z,20.97
2022-10-22T16:00:03.065Z,20.33
2022-10-22T16:03:04.670Z,22.07
2022-10-22T16:05:57.945Z,22.20
2022-10-22T16:08:49.968Z,22.00
2022-10-22T16:11:42.555Z,20.88
2022-10-22T16:14:34.536Z,22.30
2022-10-22T16:17:26.417Z,21.90
2022-10-22T16:20:18.237Z,23.77
2022-10-22T16:23:10.279Z,22.40
2022-10-22T16:26:05.205Z,21.00
2022-10-22T16:28:59.344Z,19.83
2022-10-22T16:31:51.487Z,20.53
2022-10-22T16:34:43.806Z,20.50
2022-10-22T16:37:35.807Z,21.23
2022-10-22T16:43:18.386Z,23.27
2022-10-22T16:46:12.582Z,24.05
2022-10-22T16:49:05.939Z,22.80
2022-10-22T16:51:58.242Z,23.43
2022-10-22T16:54:50.805Z,24.53
2022-10-22T16:57:43.280Z,24.20
2022-10-22T17:00:36.159Z,30.60
2022-10-22T17:03:28.526Z,27.27
2022-10-22T17:06:21.037Z,27.00
2022-10-22T17:09:13.355Z,25.10
2022-10-22T17:12:05.729Z,24.63
2022-10-22T17:14:57.701Z,26.02
2022-10-22T17:17:54.031Z,24.53
2022-10-22T17:20:47.290Z,28.10
2022-10-22T17:26:29.631Z,30.23
2022-10-22T17:29:22.212Z,31.73
2022-10-22T17:32:14.293Z,31.93
2022-10-22T17:35:08.621Z,28.75
2022-10-22T17:38:00.957Z,29.13
2022-10-22T17:46:43.981Z,27.97
2022-10-22T17:49:36.008Z,61.20
2022-10-22T17:52:27.834Z,38.02
2022-10-22T17:55:19.848Z,31.68
2022-10-22T17:58:11.690Z,33.60
2022-10-22T18:01:04.538Z,34.35
2022-10-22T18:04:00.385Z,33.57
2022-10-22T18:06:52.837Z,28.23
2022-10-22T18:09:45.142Z,27.85
2022-10-22T18:12:36.594Z,26.23
2022-10-22T18:15:28.390Z,28.70
2022-10-22T18:18:20.836Z,44.10
2022-10-22T18:21:12.456Z,34.65
2022-10-22T18:24:04.570Z,34.58
2022-10-22T18:26:57.229Z,34.47
2022-10-22T18:32:42.427Z,35.50
2022-10-22T18:35:36.589Z,29.20
2022-10-22T18:38:28.693Z,26.47
2022-10-22T18:41:21.453Z,24.35
2022-10-22T18:44:15.991Z,21.63
2022-10-22T18:47:08.932Z,22.23
2022-10-22T18:50:00.759Z,23.93
2022-10-22T18:52:52.541Z,24.07
2022-10-22T18:55:45.960Z,24.95
2022-10-22T18:58:43.354Z,25.03
2022-10-22T19:01:35.970Z,26.43
2022-10-22T19:04:31.396Z,27.37
2022-10-22T19:07:23.804Z,31.43
2022-10-22T19:10:16.311Z,34.23
2022-10-22T19:13:08.482Z,29.27
2022-10-22T19:16:06.300Z,27.52
2022-10-22T19:19:03.561Z,26.33
2022-10-22T19:21:59.939Z,24.73
2022-10-22T19:24:54.402Z,23.87
2022-10-22T19:27:46.458Z,24.47
2022-10-22T19:30:44.261Z,26.52
2022-10-22T19:33:38.800Z,24.60
2022-10-22T19:36:32.832Z,24.60
2022-10-22T19:39:25.095Z,24.00
2022-10-22T19:42:17.607Z,24.12
2022-10-22T19:48:02.394Z,22.05
2022-10-22T19:50:58.643Z,23.73
2022-10-22T19:53:52.691Z,22.70
2022-10-22T19:56:45.001Z,22.27
2022-10-22T19:59:36.838Z,23.60
2022-10-22T20:02:28.862Z,22.48
2022-10-22T20:08:18.423Z,22.40
2022-10-22T20:11:13.673Z,21.80
2022-10-22T20:14:05.675Z,25.53
2022-10-22T20:16:57.827Z,27.30
2022-10-22T20:19:50.063Z,26.80
2022-10-22T20:22:43.613Z,26.37
2022-10-22T20:25:36.525Z,24.03
2022-10-22T20:28:28.615Z,24.37
2022-10-22T20:31:23.087Z,22.95
2022-10-22T20:34:15.760Z,22.07
2022-10-22T20:37:07.790Z,22.60
2022-10-22T20:39:59.815Z,23.52
2022-10-22T20:42:52.258Z,22.53
2022-10-22T20:48:35.082Z,22.30
2022-10-22T20:54:19.373Z,24.80
2022-10-22T20:57:12.061Z,28.83
2022-10-22T21:00:03.832Z,30.73
2022-10-22T21:02:56.478Z,27.75
2022-10-22T21:08:38.097Z,25.90
2022-10-22T21:11:30.422Z,25.88
2022-10-22T21:14:23.537Z,23.57
2022-10-22T21:17:16.265Z,21.47
2022-10-22T21:23:07.585Z,21.27
2022-10-22T21:26:01.242Z,20.77
2022-10-22T21:28:53.361Z,23.27
2022-10-22T21:31:45.841Z,27.30
2022-10-22T21:34:39.047Z,28.17
2022-10-22T21:37:33.636Z,25.20
2022-10-22T21:40:27.864Z,23.97
2022-10-22T21:43:20.304Z,24.77
2022-10-22T21:46:16.007Z,20.48
2022-10-22T21:49:08.087Z,20.30
2022-10-22T21:52:02.978Z,19.05
2022-10-22T21:54:54.716Z,19.17
2022-10-22T21:57:47.188Z,19.55
2022-10-22T22:00:39.491Z,19.45
2022-10-22T22:03:32.347Z,19.50
2022-10-22T22:06:29.581Z,19.73
2022-10-22T22:09:24.822Z,20.30
2022-10-22T22:12:16.640Z,19.73
2022-10-22T22:15:11.607Z,20.02
2022-10-22T22:18:03.738Z,19.60
2022-10-22T22:20:55.186Z,19.62
2022-10-22T22:23:53.148Z,19.63
2022-10-22T22:26:45.329Z,19.50
2022-10-22T22:29:37.223Z,17.77
2022-10-22T22:32:29.094Z,19.17
2022-10-22T22:35:21.096Z,17.37
2022-10-22T22:38:13.267Z,16.73
2022-10-22T22:41:06.512Z,18.30
2022-10-22T22:43:59.159Z,17.40
2022-10-22T22:46:51.041Z,16.83
2022-10-22T22:49:43.223Z,17.98
2022-10-22T22:52:35.046Z,18.55
2022-10-22T22:55:27.580Z,18.37
2022-10-22T23:01:17.585Z,15.63
2022-10-22T23:04:12.609Z,15.73
2022-10-22T23:07:04.629Z,17.03
2022-10-22T23:09:56.228Z,15.20
2022-10-22T23:12:48.266Z,16.07
2022-10-22T23:15:42.360Z,14.70
2022-10-22T23:18:35.425Z,14.47
2022-10-22T23:24:20.424Z,15.00
2022-10-22T23:27:13.849Z,14.17
2022-10-22T23:30:06.696Z,16.47
2022-10-22T23:32:59.484Z,17.00
2022-10-22T23:38:43.733Z,15.10
2022-10-22T23:41:36.667Z,16.63
2022-10-22T23:44:28.871Z,16.07
2022-10-22T23:47:20.722Z,16.07
2022-10-22T23:50:13.619Z,16.00
2022-10-22T23:53:05.413Z,14.97
2022-10-22T23:55:57.520Z,14.00
2022-10-22T23:58:52.837Z,16.07
